Time;durP1;ratioP1;P1;durP2;ratioP2;P2;SDS_P1;SDS_P2;PMS_P1;PMS_P2;Temp;Humidity;BMP_temperature;BMP_pressure;BME280_temperature;BME280_humidity;BME280_pressure;Samples;Min_cycle;Max_cycle;Signal;HPM_P1;HPM_P2
2022/10/26 00:01:55;;;;;;;3.50;1.03;;;;;;;12.62;100.00;98637.84;6175438;23;20206;-59
2022/10/26 00:04:21;;;;;;;7.90;1.20;;;;;;;12.63;100.00;98635.06;6172099;23;20207;-58
2022/10/26 00:06:48;;;;;;;9.67;1.20;;;;;;;12.69;100.00;98633.59;6174998;23;20570;-59
2022/10/26 00:09:15;;;;;;;4.67;0.80;;;;;;;12.66;100.00;98639.97;6171932;23;20731;-59
2022/10/26 00:11:41;;;;;;;2.93;1.00;;;;;;;12.64;100.00;98635.88;6174888;23;20253;-58
2022/10/26 00:14:08;;;;;;;8.27;1.20;;;;;;;12.66;100.00;98632.09;6171286;23;20200;-59
2022/10/26 00:16:34;;;;;;;3.07;0.90;;;;;;;12.68;100.00;98637.19;6175311;23;20211;-58
2022/10/26 00:19:02;;;;;;;1.93;1.10;;;;;;;12.70;100.00;98633.41;6175280;23;20673;-58
2022/10/26 00:21:29;;;;;;;7.03;1.13;;;;;;;12.71;100.00;98634.25;6172770;23;20218;-58
2022/10/26 00:23:55;;;;;;;6.13;1.00;;;;;;;12.68;100.00;98626.72;6175285;23;20207;-59
2022/10/26 00:26:22;;;;;;;5.30;1.13;;;;;;;12.65;100.00;98622.63;6172222;23;20217;-59
2022/10/26 00:28:48;;;;;;;5.00;0.80;;;;;;;12.58;100.00;98608.53;6175347;23;20208;-57
2022/10/26 00:31:16;;;;;;;2.67;0.80;;;;;;;12.54;100.00;98610.69;6169570;23;20208;-58
2022/10/26 00:33:43;;;;;;;3.60;1.10;;;;;;;12.52;100.00;98609.19;6173273;23;20208;-58
2022/10/26 00:36:15;;;;;;;3.53;0.90;;;;;;;12.49;100.00;98612.13;6171446;23;20227;-57
2022/10/26 00:38:44;;;;;;;3.83;1.00;;;;;;;12.50;100.00;98601.50;6175466;23;20199;-58
2022/10/26 00:41:14;;;;;;;5.10;1.00;;;;;;;12.50;99.94;98600.69;6171291;23;20204;-59
2022/10/26 00:43:41;;;;;;;3.30;0.90;;;;;;;12.50;100.00;98598.91;6175131;23;20208;-59
2022/10/26 00:46:12;;;;;;;4.83;0.90;;;;;;;12.54;100.00;98602.81;6170774;23;20682;-58
2022/10/26 00:48:42;;;;;;;4.60;1.00;;;;;;;12.59;99.61;98594.47;6175457;23;20209;-59
2022/10/26 00:51:16;;;;;;;2.77;0.93;;;;;;;12.65;99.76;98600.84;6171985;23;20215;-58
2022/10/26 00:53:44;;;;;;;2.10;0.80;;;;;;;12.72;99.45;98596.56;6175124;23;20203;-58
2022/10/26 00:56:11;;;;;;;2.30;1.00;;;;;;;12.80;99.44;98593.13;6171849;23;20519;-59
2022/10/26 00:58:38;;;;;;;4.73;1.00;;;;;;;12.82;100.00;98586.72;6175609;23;20259;-58
2022/10/26 01:01:05;;;;;;;4.43;0.88;;;;;;;12.87;100.00;98601.13;6171256;23;20416;-58
2022/10/26 01:03:34;;;;;;;6.57;0.83;;;;;;;12.89;100.00;98593.94;6174400;23;20203;-59
2022/10/26 01:06:03;;;;;;;5.90;1.20;;;;;;;12.84;100.00;98591.81;6160992;23;20217;-59
2022/10/26 01:08:31;;;;;;;8.63;1.60;;;;;;;12.83;100.00;98575.28;6172889;23;20236;-56
2022/10/26 01:10:59;;;;;;;3.60;0.90;;;;;;;12.81;100.00;98573.81;6175488;23;20271;-59
2022/10/26 01:13:30;;;;;;;4.37;0.80;;;;;;;12.79;100.00;98571.34;6172193;23;20199;-58
2022/10/26 01:16:08;;;;;;;3.53;1.07;;;;;;;12.72;100.00;98559.91;6174154;23;20669;-57
2022/10/26 01:18:45;;;;;;;1.30;0.80;;;;;;;12.74;100.00;98555.31;6145373;23;20202;-58
2022/10/26 01:21:32;;;;;;;6.00;1.10;;;;;;;12.71;100.00;98547.81;6171848;23;20208;-55
2022/10/26 01:24:19;;;;;;;6.00;0.90;;;;;;;12.68;100.00;98553.38;6134729;23;20208;-59
2022/10/26 01:27:00;;;;;;;3.23;1.10;;;;;;;12.63;100.00;98553.88;6172567;23;20212;-59
2022/10/26 01:29:47;;;;;;;3.77;0.83;;;;;;;12.58;100.00;98565.84;6172602;23;20754;-59
2022/10/26 01:32:21;;;;;;;4.10;0.90;;;;;;;12.51;100.00;98569.13;6152859;23;20213;-59
2022/10/26 01:34:56;;;;;;;6.77;1.30;;;;;;;12.46;100.00;98571.41;6175341;23;20582;-59
2022/10/26 01:37:28;;;;;;;3.50;1.20;;;;;;;12.42;100.00;98575.34;6172455;23;20207;-58
2022/10/26 01:40:02;;;;;;;6.87;1.07;;;;;;;12.37;100.00;98580.25;6175769;23;20200;-59
2022/10/26 01:42:31;;;;;;;3.80;0.90;;;;;;;12.32;100.00;98593.81;6172820;23;20685;-58
2022/10/26 01:45:03;;;;;;;4.50;1.10;;;;;;;12.27;100.00;98597.91;6174967;23;20263;-58
2022/10/26 01:47:34;;;;;;;5.90;1.00;;;;;;;12.17;100.00;98604.09;6172989;23;20207;-58
2022/10/26 01:50:02;;;;;;;3.67;0.93;;;;;;;12.10;100.00;98622.25;6175265;23;20227;-59
2022/10/26 01:52:29;;;;;;;4.30;1.40;;;;;;;12.06;100.00;98634.03;6172857;23;20281;-58
2022/10/26 01:55:01;;;;;;;3.80;1.07;;;;;;;12.05;100.00;98642.00;6135716;23;20204;-56
2022/10/26 01:57:30;;;;;;;2.43;1.00;;;;;;;12.08;100.00;98646.94;6159375;23;20680;-58
2022/10/26 02:00:06;;;;;;;5.23;1.30;;;;;;;12.15;100.00;98666.25;6149544;23;20203;-58
2022/10/26 02:02:57;;;;;;;4.67;1.60;;;;;;;12.27;100.00;98665.94;6172274;23;20210;-58
2022/10/26 02:05:36;;;;;;;5.73;1.97;;;;;;;12.26;100.00;98657.25;6171589;23;20265;-58
2022/10/26 02:08:19;;;;;;;7.90;2.17;;;;;;;12.34;100.00;98643.38;6130876;23;20202;-57
2022/10/26 02:11:08;;;;;;;3.37;1.60;;;;;;;12.37;100.00;98651.72;6175683;23;20210;-56
2022/10/26 02:13:45;;;;;;;4.50;1.33;;;;;;;12.37;100.00;98654.34;6171827;23;20214;-58
2022/10/26 02:16:21;;;;;;;4.33;1.60;;;;;;;12.35;100.00;98660.72;6170940;23;20201;-59
2022/10/26 02:18:54;;;;;;;2.30;1.33;;;;;;;12.25;100.00;98653.84;6177104;23;20255;-59
2022/10/26 02:21:24;;;;;;;7.50;1.53;;;;;;;12.12;100.00;98663.16;6173363;23;20207;-59
2022/10/26 02:23:54;;;;;;;5.10;1.70;;;;;;;11.99;100.00;98669.63;6176485;23;20661;-59
2022/10/26 02:26:24;;;;;;;6.43;1.47;;;;;;;11.95;100.00;98674.31;6172471;23;20272;-59
2022/10/26 02:28:55;;;;;;;9.90;1.50;;;;;;;11.95;100.00;98669.09;6150260;23;20920;-58
2022/10/26 02:31:24;;;;;;;5.80;1.43;;;;;;;11.98;100.00;98669.75;6172528;23;20651;-59
2022/10/26 02:33:54;;;;;;;7.27;2.00;;;;;;;12.00;100.00;98676.53;6176319;23;20211;-59
2022/10/26 02:36:25;;;;;;;5.00;1.50;;;;;;;12.04;100.00;98679.63;6172928;23;20600;-59
2022/10/26 02:38:53;;;;;;;4.60;1.40;;;;;;;12.11;100.00;98683.25;6177029;23;20262;-59
2022/10/26 02:41:23;;;;;;;7.33;1.60;;;;;;;12.17;100.00;98680.00;6173484;23;20258;-59
2022/10/26 02:43:53;;;;;;;7.57;2.30;;;;;;;12.24;100.00;98688.84;6175566;23;20258;-58
2022/10/26 02:46:24;;;;;;;3.10;1.50;;;;;;;12.35;100.00;98694.75;6173054;23;20570;-59
2022/10/26 02:48:53;;;;;;;2.80;1.63;;;;;;;12.39;100.00;98691.63;6150443;23;20627;-59
2022/10/26 02:51:27;;;;;;;4.60;1.37;;;;;;;12.44;100.00;98693.78;6173050;23;20293;-59
2022/10/26 02:53:59;;;;;;;4.77;1.67;;;;;;;12.40;100.00;98677.56;6176236;23;20274;-57
2022/10/26 02:56:29;;;;;;;4.87;1.47;;;;;;;12.42;100.00;98679.22;6173250;23;20304;-56
2022/10/26 02:59:00;;;;;;;8.37;1.47;;;;;;;12.45;100.00;98684.13;6176706;23;20270;-59
2022/10/26 03:01:28;;;;;;;2.53;1.50;;;;;;;12.47;100.00;98671.69;6171943;23;20873;-58
2022/10/26 03:03:58;;;;;;;5.07;1.10;;;;;;;12.48;100.00;98668.94;6175515;23;20278;-58
2022/10/26 03:06:26;;;;;;;5.47;1.10;;;;;;;12.49;100.00;98654.84;6146505;23;20274;-58
2022/10/26 03:08:53;;;;;;;8.30;1.40;;;;;;;12.56;100.00;98652.41;6175661;23;20223;-57
2022/10/26 03:11:22;;;;;;;5.87;1.20;;;;;;;12.68;100.00;98652.91;6173029;23;20211;-59
2022/10/26 03:13:48;;;;;;;3.20;1.43;;;;;;;12.84;98.46;98652.06;6176287;23;20255;-58
2022/10/26 03:16:15;;;;;;;9.17;1.10;;;;;;;12.89;98.96;98646.31;6172479;23;20196;-57
2022/10/26 03:18:41;;;;;;;9.20;1.20;;;;;;;12.92;98.96;98643.38;6176341;23;20203;-58
2022/10/26 03:21:09;;;;;;;3.73;1.23;;;;;;;12.94;98.46;98638.78;6172956;23;20208;-58
2022/10/26 03:23:36;;;;;;;8.13;1.40;;;;;;;12.93;99.99;98647.63;6176087;23;20203;-56
2022/10/26 03:26:02;;;;;;;4.13;1.30;;;;;;;12.91;100.00;98639.13;6172440;23;20208;-58
2022/10/26 03:28:31;;;;;;;2.30;1.13;;;;;;;12.86;100.00;98637.00;6175798;23;20215;-59
2022/10/26 03:30:57;;;;;;;3.30;1.20;;;;;;;12.88;100.00;98644.69;6163303;23;20312;-58
2022/10/26 03:33:24;;;;;;;4.23;1.07;;;;;;;12.83;100.00;98659.09;6171675;23;20203;-58
2022/10/26 03:35:55;;;;;;;10.93;1.50;;;;;;;12.87;100.00;98666.63;6149891;23;20242;-58
2022/10/26 03:38:23;;;;;;;4.90;1.23;;;;;;;12.83;100.00;98664.34;6173014;23;21474;-58
2022/10/26 03:40:50;;;;;;;2.33;1.30;;;;;;;12.85;100.00;98667.59;6174873;23;20223;-58
2022/10/26 03:43:16;;;;;;;6.70;1.30;;;;;;;12.87;100.00;98671.88;6172652;23;20203;-58
2022/10/26 03:45:43;;;;;;;7.43;1.37;;;;;;;12.86;100.00;98671.06;6175148;23;20212;-55
2022/10/26 03:48:09;;;;;;;7.57;1.20;;;;;;;12.87;100.00;98664.84;6172599;23;20208;-52
2022/10/26 03:50:36;;;;;;;5.10;1.23;;;;;;;12.89;100.00;98665.50;6176077;23;20212;-55
2022/10/26 03:53:03;;;;;;;6.63;1.30;;;;;;;12.92;100.00;98666.94;6171971;23;20212;-57
2022/10/26 03:55:31;;;;;;;5.43;1.20;;;;;;;12.90;100.00;98663.69;6176022;23;20674;-56
2022/10/26 03:57:57;;;;;;;4.77;1.23;;;;;;;12.92;100.00;98646.00;6175968;23;20255;-56
2022/10/26 04:00:24;;;;;;;6.65;1.63;;;;;;;12.95;100.00;98648.28;6172242;23;20410;-57
2022/10/26 04:02:55;;;;;;;8.93;1.17;;;;;;;12.94;100.00;98630.94;6176002;23;20258;-55
2022/10/26 04:05:22;;;;;;;5.53;1.30;;;;;;;12.96;100.00;98635.03;6172589;23;20820;-57
2022/10/26 04:07:52;;;;;;;7.27;1.63;;;;;;;12.95;100.00;98622.09;6149549;23;20215;-56
2022/10/26 04:10:19;;;;;;;6.03;1.50;;;;;;;12.93;100.00;98603.09;6172624;23;20211;-53
2022/10/26 04:12:47;;;;;;;3.87;1.17;;;;;;;12.95;100.00;98601.97;6176010;23;20204;-56
2022/10/26 04:15:13;;;;;;;5.70;1.47;;;;;;;12.93;100.00;98619.66;6172442;23;20205;-56
2022/10/26 04:17:40;;;;;;;6.20;1.50;;;;;;;12.92;100.00;98622.41;6176139;23;20212;-56
2022/10/26 04:20:08;;;;;;;3.47;1.20;;;;;;;12.91;100.00;98628.63;6172709;23;20199;-55
2022/10/26 04:22:35;;;;;;;4.20;1.40;;;;;;;12.91;100.00;98633.88;6175931;23;20238;-57
2022/10/26 04:25:02;;;;;;;7.33;2.00;;;;;;;13.01;100.00;98629.28;6176007;23;20246;-57
2022/10/26 04:27:28;;;;;;;3.90;1.50;;;;;;;13.22;100.00;98625.31;6172939;23;20278;-56
2022/10/26 04:29:56;;;;;;;5.33;1.37;;;;;;;13.41;100.00;98630.22;6176175;23;20580;-56
2022/10/26 04:32:23;;;;;;;4.43;1.40;;;;;;;13.63;100.00;98614.72;6172255;23;20219;-58
2022/10/26 04:34:49;;;;;;;4.67;1.80;;;;;;;13.86;100.00;98609.50;6174870;23;20663;-57
2022/10/26 04:37:16;;;;;;;4.03;1.50;;;;;;;14.06;100.00;98613.50;6171955;23;20250;-57
2022/10/26 04:39:42;;;;;;;8.60;1.47;;;;;;;14.29;97.66;98614.34;6175873;23;20234;-56
2022/10/26 04:42:09;;;;;;;6.60;2.00;;;;;;;14.34;97.64;98615.63;6172164;23;20212;-55
2022/10/26 04:44:35;;;;;;;3.67;1.30;;;;;;;14.35;99.54;98612.81;6175097;23;20252;-56
2022/10/26 04:47:03;;;;;;;4.77;1.50;;;;;;;14.33;99.56;98617.41;6175419;23;20216;-56
2022/10/26 04:49:30;;;;;;;3.23;1.30;;;;;;;14.34;99.68;98620.88;6173605;23;20216;-57
2022/10/26 04:51:56;;;;;;;8.07;1.90;;;;;;;14.35;99.59;98630.38;6175634;23;20261;-55
2022/10/26 04:54:23;;;;;;;9.10;2.03;;;;;;;14.33;99.32;98627.91;6171553;23;20586;-56
2022/10/26 04:56:51;;;;;;;6.63;1.50;;;;;;;14.30;100.00;98628.28;6175534;23;20205;-57
2022/10/26 04:59:18;;;;;;;28.47;14.17;;;;;;;14.37;98.83;98633.66;6172006;23;20207;-57
2022/10/26 05:01:44;;;;;;;48.37;17.20;;;;;;;14.38;98.36;98632.66;6175592;23;20294;-56
2022/10/26 05:04:12;;;;;;;26.23;12.63;;;;;;;14.43;97.87;98625.06;6171939;23;20199;-57
2022/10/26 05:06:39;;;;;;;19.80;9.87;;;;;;;14.49;96.75;98629.63;6175553;23;20205;-54
2022/10/26 05:09:06;;;;;;;49.00;26.50;;;;;;;14.57;95.11;98642.69;6171631;23;20213;-56
2022/10/26 05:11:32;;;;;;;21.90;13.27;;;;;;;14.66;95.58;98647.88;6175329;23;20263;-55
2022/10/26 05:13:59;;;;;;;20.47;12.87;;;;;;;14.65;96.10;98654.13;6175405;23;20214;-56
2022/10/26 05:16:25;;;;;;;12.53;4.60;;;;;;;14.69;95.52;98653.63;6172118;23;20200;-56
2022/10/26 05:18:52;;;;;;;11.70;6.73;;;;;;;14.65;97.15;98654.13;6175316;23;20210;-56
2022/10/26 05:21:20;;;;;;;8.27;3.53;;;;;;;14.56;98.42;98661.25;6169234;23;20212;-56
2022/10/26 05:23:51;;;;;;;9.67;2.23;;;;;;;14.47;99.69;98676.25;6175143;23;20303;-55
2022/10/26 05:26:18;;;;;;;12.27;3.43;;;;;;;14.41;100.00;98679.56;6172282;23;20214;-56
2022/10/26 05:28:44;;;;;;;15.00;7.47;;;;;;;14.37;100.00;98691.41;6175417;23;20226;-56
2022/10/26 05:31:11;;;;;;;7.43;2.90;;;;;;;14.29;100.00;98695.72;6145464;23;20212;-54
2022/10/26 05:33:37;;;;;;;9.00;3.00;;;;;;;14.27;100.00;98694.28;6174966;23;20213;-55
2022/10/26 05:36:04;;;;;;;4.60;1.90;;;;;;;14.26;97.86;98698.69;6172132;23;20253;-56
2022/10/26 05:38:32;;;;;;;8.97;6.17;;;;;;;14.21;100.00;98690.50;6175458;23;20519;-56
2022/10/26 05:41:00;;;;;;;7.20;3.63;;;;;;;14.14;100.00;98703.53;6175528;23;20212;-57
2022/10/26 05:43:26;;;;;;;9.13;2.83;;;;;;;14.03;100.00;98706.53;6171047;23;20201;-56
2022/10/26 05:45:54;;;;;;;6.13;2.97;;;;;;;13.96;100.00;98713.44;6174697;23;20740;-57
2022/10/26 05:48:20;;;;;;;6.57;3.40;;;;;;;13.83;99.30;98706.94;6171313;23;20274;-55
2022/10/26 05:50:47;;;;;;;5.70;2.67;;;;;;;13.81;99.37;98715.94;6172849;23;20201;-57
2022/10/26 05:53:14;;;;;;;9.17;2.87;;;;;;;13.87;100.00;98708.22;6169770;23;20214;-56
2022/10/26 05:55:43;;;;;;;6.97;2.70;;;;;;;13.87;100.00;98710.03;6140982;23;20268;-54
2022/10/26 05:58:10;;;;;;;7.43;2.93;;;;;;;13.87;100.00;98720.53;6141638;23;20205;-55
2022/10/26 06:00:48;;;;;;;6.10;2.43;;;;;;;14.02;99.18;98723.28;6159470;23;20252;-57
2022/10/26 06:03:25;;;;;;;9.93;3.13;;;;;;;14.09;99.02;98732.09;6167599;23;20200;-56
2022/10/26 06:05:56;;;;;;;8.87;3.60;;;;;;;14.13;99.26;98736.00;6174094;23;20783;-57
2022/10/26 06:08:24;;;;;;;14.00;4.00;;;;;;;14.03;99.57;98735.41;6173546;23;23100;-57
2022/10/26 06:10:54;;;;;;;10.63;3.87;;;;;;;13.98;99.74;98746.41;6176722;23;20647;-57
2022/10/26 06:13:22;;;;;;;8.50;4.40;;;;;;;13.90;100.00;98746.41;6173045;23;20204;-56
2022/10/26 06:16:04;;;;;;;7.17;4.07;;;;;;;13.83;100.00;98743.66;6176390;23;20647;-56
2022/10/26 06:18:39;;;;;;;7.93;4.07;;;;;;;13.81;100.00;98737.78;6174205;23;20203;-56
2022/10/26 06:21:20;;;;;;;11.07;4.97;;;;;;;13.82;100.00;98749.06;6173718;23;20243;-56
2022/10/26 06:23:55;;;;;;;8.53;4.10;;;;;;;13.78;100.00;98753.03;6176749;23;20200;-55
2022/10/26 06:26:35;;;;;;;8.53;3.83;;;;;;;13.73;100.00;98757.00;6173409;23;20202;-56
2022/10/26 06:29:16;;;;;;;7.87;4.17;;;;;;;13.58;100.00;98753.41;6177107;23;20199;-56
2022/10/26 06:31:43;;;;;;;8.67;4.40;;;;;;;13.62;100.00;98759.13;6173489;23;20212;-56
2022/10/26 06:34:14;;;;;;;16.00;4.97;;;;;;;13.60;100.00;98755.84;6173210;23;20208;-56
2022/10/26 06:36:41;;;;;;;10.67;4.57;;;;;;;13.64;100.00;98759.78;6150638;23;20212;-56
2022/10/26 06:39:11;;;;;;;9.57;4.10;;;;;;;13.68;100.00;98772.41;6173410;23;20822;-55
2022/10/26 06:41:40;;;;;;;11.67;5.10;;;;;;;13.65;100.00;98775.38;6176843;23;20212;-56
2022/10/26 06:44:15;;;;;;;12.40;4.13;;;;;;;13.81;100.00;98771.03;6172623;23;20662;-56
2022/10/26 06:46:47;;;;;;;9.67;3.60;;;;;;;13.93;100.00;98776.78;6176182;23;20507;-56
2022/10/26 06:49:21;;;;;;;9.03;3.50;;;;;;;14.06;100.00;98781.47;6173372;23;20213;-57
2022/10/26 06:51:55;;;;;;;9.80;3.10;;;;;;;14.36;100.00;98779.88;6176727;23;20209;-56
2022/10/26 06:54:27;;;;;;;7.50;3.10;;;;;;;14.52;100.00;98780.78;6172797;23;20200;-56
2022/10/26 06:56:56;;;;;;;7.97;4.10;;;;;;;14.49;100.00;98787.22;6176685;23;20666;-52
2022/10/26 06:59:32;;;;;;;9.87;3.90;;;;;;;14.44;100.00;98795.59;6173278;23;21643;-56
2022/10/26 07:01:59;;;;;;;11.50;3.90;;;;;;;14.48;100.00;98798.69;6176625;23;20208;-56
2022/10/26 07:04:25;;;;;;;11.27;3.70;;;;;;;14.51;100.00;98800.97;6172491;23;20265;-55
2022/10/26 07:06:52;;;;;;;13.90;3.23;;;;;;;14.60;100.00;98799.13;6176612;23;20704;-55
2022/10/26 07:09:18;;;;;;;11.07;3.40;;;;;;;14.78;100.00;98795.44;6172636;23;20203;-55
2022/10/26 07:11:45;;;;;;;7.50;3.07;;;;;;;15.01;100.00;98800.69;6176278;23;20276;-56
2022/10/26 07:14:13;;;;;;;14.30;3.27;;;;;;;15.27;98.74;98804.78;6172525;23;20260;-55
2022/10/26 07:16:39;;;;;;;12.10;3.47;;;;;;;15.45;96.64;98807.94;6176611;23;20204;-56
2022/10/26 07:19:06;;;;;;;7.27;2.53;;;;;;;15.59;94.97;98800.25;6173020;23;20205;-57
2022/10/26 07:21:33;;;;;;;8.50;2.70;;;;;;;15.74;93.88;98805.50;6176160;23;20691;-53
2022/10/26 07:23:59;;;;;;;10.07;2.73;;;;;;;15.93;91.92;98796.28;6176231;23;20589;-55
2022/10/26 07:26:26;;;;;;;10.03;3.00;;;;;;;16.04;91.47;98809.00;6171357;23;20654;-56
2022/10/26 07:28:52;;;;;;;9.80;2.80;;;;;;;16.17;90.08;98811.00;6176032;23;20205;-56
2022/10/26 07:31:20;;;;;;;10.47;3.10;;;;;;;16.33;88.93;98815.25;6172839;23;20214;-55
2022/10/26 07:33:47;;;;;;;6.90;2.77;;;;;;;16.43;87.47;98824.69;6176165;23;20201;-55
2022/10/26 07:36:13;;;;;;;14.80;3.00;;;;;;;16.49;87.11;98830.03;6173160;23;20210;-54
2022/10/26 07:38:40;;;;;;;7.63;2.80;;;;;;;16.53;87.99;98831.31;6175847;23;20265;-56
2022/10/26 07:41:07;;;;;;;10.43;2.60;;;;;;;16.60;85.05;98822.66;6172836;23;20213;-57
2022/10/26 07:43:33;;;;;;;9.63;2.43;;;;;;;16.73;83.16;98841.25;6175749;23;20232;-56
2022/10/26 07:46:00;;;;;;;11.63;3.17;;;;;;;16.85;81.89;98838.97;6175406;23;20213;-55
2022/10/26 07:48:28;;;;;;;10.97;2.60;;;;;;;16.94;82.19;98848.41;6172158;23;20213;-54
2022/10/26 07:50:54;;;;;;;8.87;2.37;;;;;;;17.07;80.94;98854.81;6176036;23;20268;-57
2022/10/26 07:53:21;;;;;;;8.70;3.67;;;;;;;17.18;81.30;98866.72;6171990;23;20719;-56
2022/10/26 07:55:53;;;;;;;10.87;3.40;;;;;;;17.22;80.47;98867.97;6176069;23;20206;-57
2022/10/26 07:58:22;;;;;;;9.97;2.97;;;;;;;17.26;83.01;98872.69;6172688;23;20228;-56
2022/10/26 08:00:49;;;;;;;10.70;2.87;;;;;;;17.31;78.85;98873.94;6176118;23;20198;-57
2022/10/26 08:03:15;;;;;;;6.57;2.33;;;;;;;17.39;79.57;98877.28;6171547;23;20199;-58
2022/10/26 08:05:45;;;;;;;11.93;2.90;;;;;;;17.46;78.94;98879.16;6175336;23;20210;-57
2022/10/26 08:08:12;;;;;;;8.77;2.50;;;;;;;17.51;76.36;98882.84;6172520;23;20218;-57
2022/10/26 08:10:42;;;;;;;10.50;2.27;;;;;;;17.55;77.53;98889.38;6175232;23;20210;-57
2022/10/26 08:13:09;;;;;;;8.97;2.70;;;;;;;17.67;74.18;98886.25;6172387;23;20257;-57
2022/10/26 08:15:35;;;;;;;9.53;2.60;;;;;;;17.63;75.76;98892.91;6175564;23;20200;-56
2022/10/26 08:18:02;;;;;;;10.30;3.00;;;;;;;17.69;76.62;98907.97;6174330;23;20207;-57
2022/10/26 08:20:28;;;;;;;9.83;2.40;;;;;;;17.77;75.61;98893.81;6172433;23;20522;-56
2022/10/26 08:22:57;;;;;;;7.93;2.30;;;;;;;17.81;75.76;98893.25;6175847;23;20585;-56
2022/10/26 08:25:24;;;;;;;13.43;3.10;;;;;;;17.87;75.33;98894.31;6172198;23;20218;-56
2022/10/26 08:27:50;;;;;;;10.50;2.63;;;;;;;18.09;74.30;98903.00;6175713;23;20531;-57
2022/10/26 08:30:18;;;;;;;10.13;2.80;;;;;;;18.07;72.78;98899.75;6172331;23;20200;-57
2022/10/26 08:32:44;;;;;;;13.57;2.70;;;;;;;18.07;73.68;98902.38;6175859;23;20260;-56
2022/10/26 08:35:11;;;;;;;8.17;2.80;;;;;;;18.06;74.31;98921.88;6171901;23;20312;-58
2022/10/26 08:37:38;;;;;;;12.83;2.40;;;;;;;18.00;74.20;98905.00;6175971;23;20724;-56
2022/10/26 08:40:07;;;;;;;12.60;3.30;;;;;;;17.84;74.61;98921.09;6172720;23;20204;-56
2022/10/26 08:42:42;;;;;;;10.73;2.90;;;;;;;17.84;73.21;98900.81;6175703;23;20273;-56
2022/10/26 08:45:18;;;;;;;10.23;2.57;;;;;;;17.89;73.91;98915.25;6172166;23;20203;-55
2022/10/26 08:47:50;;;;;;;8.03;2.60;;;;;;;17.82;73.24;98926.56;6175336;23;20213;-54
2022/10/26 08:50:24;;;;;;;7.77;2.80;;;;;;;17.75;74.10;98933.63;6172569;23;20208;-56
2022/10/26 08:53:01;;;;;;;12.37;2.40;;;;;;;17.73;73.55;98940.91;6175170;23;20729;-57
2022/10/26 08:55:35;;;;;;;10.43;2.60;;;;;;;17.90;73.69;98935.38;6172244;23;20660;-56
2022/10/26 08:58:07;;;;;;;6.93;2.50;;;;;;;18.00;71.43;98927.97;6175491;23;20194;-54
2022/10/26 09:00:34;;;;;;;8.50;2.10;;;;;;;18.03;73.15;98930.19;6164100;23;20211;-56
2022/10/26 09:03:01;;;;;;;8.73;2.60;;;;;;;18.11;73.13;98930.06;6168479;23;20207;-56
2022/10/26 09:05:38;;;;;;;5.87;2.03;;;;;;;18.25;72.87;98936.25;6171665;23;20286;-55
2022/10/26 09:08:10;;;;;;;9.27;2.10;;;;;;;18.36;71.42;98945.47;6171264;23;20511;-56
2022/10/26 09:10:41;;;;;;;9.03;2.53;;;;;;;18.54;70.45;98944.97;6174682;23;20227;-56
2022/10/26 09:13:23;;;;;;;8.97;2.83;;;;;;;18.40;70.15;98945.91;6171707;23;20208;-56
2022/10/26 09:16:00;;;;;;;4.67;1.87;;;;;;;18.42;68.68;98944.69;6175055;23;20259;-55
2022/10/26 09:18:41;;;;;;;7.70;2.20;;;;;;;18.41;70.01;98947.56;6171153;23;20207;-57
2022/10/26 09:21:20;;;;;;;5.97;1.80;;;;;;;18.52;71.03;98957.59;6171444;23;20609;-58
2022/10/26 09:23:58;;;;;;;11.10;2.50;;;;;;;18.53;71.62;98963.66;6174606;23;20197;-53
2022/10/26 09:26:38;;;;;;;7.40;2.10;;;;;;;18.38;70.94;98961.16;6171300;23;20201;-56
2022/10/26 09:29:10;;;;;;;10.20;2.80;;;;;;;18.50;69.87;98971.97;6173153;23;20224;-56
2022/10/26 09:31:40;;;;;;;5.20;2.13;;;;;;;18.48;72.24;98961.63;6176061;23;20262;-56
2022/10/26 09:34:13;;;;;;;7.17;2.13;;;;;;;18.53;70.43;98979.53;6173080;23;20319;-55
2022/10/26 09:36:39;;;;;;;7.13;2.20;;;;;;;18.58;71.44;98985.06;6176936;23;20586;-53
2022/10/26 09:39:15;;;;;;;7.17;2.30;;;;;;;18.47;71.48;98980.31;6172954;23;20205;-56
2022/10/26 09:41:47;;;;;;;7.33;1.93;;;;;;;18.62;70.18;98996.88;6177316;23;20335;-55
2022/10/26 09:44:24;;;;;;;6.73;2.13;;;;;;;18.65;70.44;98995.66;6161383;23;20255;-56
2022/10/26 09:46:58;;;;;;;8.43;2.13;;;;;;;18.78;68.01;99001.03;6168892;23;20282;-57
2022/10/26 09:49:33;;;;;;;6.03;2.00;;;;;;;18.85;69.42;99003.72;6165042;23;20601;-60
2022/10/26 09:52:00;;;;;;;8.90;2.43;;;;;;;18.87;69.26;99005.13;6144659;23;20538;-59
2022/10/26 09:54:27;;;;;;;5.57;2.00;;;;;;;18.97;68.71;99007.47;6167584;23;20271;-58
2022/10/26 09:57:00;;;;;;;7.63;1.90;;;;;;;18.88;69.70;99001.47;6171582;23;20848;-59
2022/10/26 09:59:29;;;;;;;13.80;3.33;;;;;;;18.87;69.62;99005.13;6168031;23;20587;-60
2022/10/26 10:01:56;;;;;;;9.90;2.13;;;;;;;18.84;69.24;99007.38;6171246;23;20266;-58
2022/10/26 10:04:23;;;;;;;8.40;2.07;;;;;;;18.95;68.98;99008.63;6167397;23;20254;-59
2022/10/26 10:06:51;;;;;;;7.00;2.10;;;;;;;19.10;69.51;99006.72;6169849;23;20259;-59
2022/10/26 10:09:20;;;;;;;5.30;1.67;;;;;;;19.11;68.92;99008.34;6167580;23;20750;-59
2022/10/26 10:11:53;;;;;;;6.33;2.00;;;;;;;19.08;68.17;99015.88;6170754;23;20690;-59
2022/10/26 10:14:23;;;;;;;5.67;1.77;;;;;;;19.04;68.73;99023.38;6166832;23;20531;-60
2022/10/26 10:16:53;;;;;;;9.97;2.40;;;;;;;19.23;68.24;99027.09;6171795;23;20203;-58
2022/10/26 10:19:25;;;;;;;9.63;2.10;;;;;;;19.45;66.95;99029.63;6167373;23;20281;-58
2022/10/26 10:21:55;;;;;;;10.87;2.40;;;;;;;19.41;68.12;99037.16;6171748;23;20702;-59
2022/10/26 10:24:28;;;;;;;9.23;2.40;;;;;;;19.49;66.96;99036.16;6168129;23;20309;-59
2022/10/26 10:26:57;;;;;;;5.80;1.90;;;;;;;19.68;68.68;99033.78;6171387;23;20197;-58
2022/10/26 10:29:27;;;;;;;4.97;2.20;;;;;;;19.90;65.70;99048.53;6167964;23;20216;-59
2022/10/26 10:31:58;;;;;;;9.43;2.10;;;;;;;19.98;63.91;99031.59;6171472;23;20287;-60
2022/10/26 10:34:25;;;;;;;8.77;2.03;;;;;;;20.04;64.14;99036.09;6167629;23;20211;-59
2022/10/26 10:36:52;;;;;;;9.33;2.00;;;;;;;20.03;64.42;99038.97;6171542;23;20214;-59
2022/10/26 10:39:34;;;;;;;7.57;1.93;;;;;;;20.29;63.74;99040.81;6166522;23;20209;-59
2022/10/26 10:42:01;;;;;;;7.63;2.13;;;;;;;20.27;62.91;99050.78;6170968;23;20217;-59
2022/10/26 10:44:30;;;;;;;7.40;1.80;;;;;;;20.38;63.36;99045.91;6165233;23;20217;-59
2022/10/26 10:47:01;;;;;;;8.13;1.50;;;;;;;20.33;61.89;99055.28;6169710;23;20218;-58
2022/10/26 10:49:29;;;;;;;5.43;2.10;;;;;;;20.12;63.19;99052.81;6167226;23;20264;-59
2022/10/26 10:51:56;;;;;;;6.93;2.20;;;;;;;20.13;64.10;99057.09;6170916;23;20753;-60
2022/10/26 10:54:27;;;;;;;6.47;2.00;;;;;;;20.00;62.36;99058.72;6166672;23;20212;-59
2022/10/26 10:56:57;;;;;;;7.57;2.33;;;;;;;19.72;64.28;99061.50;6157081;23;20258;-59
2022/10/26 10:59:39;;;;;;;7.10;1.90;;;;;;;19.57;66.15;99061.66;6168285;23;20217;-59
2022/10/26 11:02:50;;;;;;;5.53;1.80;;;;;;;19.29;64.56;99055.44;6167462;23;20213;-60
2022/10/26 11:05:36;;;;;;;10.57;2.20;;;;;;;19.26;66.21;99053.19;6099993;23;20240;-59
2022/10/26 11:08:08;;;;;;;9.90;2.00;;;;;;;19.37;67.00;99062.41;6171030;23;20206;-59
2022/10/26 11:10:39;;;;;;;6.20;1.70;;;;;;;19.41;66.61;99063.63;6167982;23;20203;-58
2022/10/26 11:13:15;;;;;;;7.83;2.07;;;;;;;19.61;65.57;99047.81;6168042;23;20232;-59
2022/10/26 11:15:46;;;;;;;3.97;1.80;;;;;;;19.82;64.87;99061.09;6170755;23;20214;-58
2022/10/26 11:18:17;;;;;;;5.97;2.07;;;;;;;20.15;64.82;99071.78;6167844;23;20213;-60
2022/10/26 11:20:50;;;;;;;5.33;2.50;;;;;;;20.35;65.28;99063.03;6170557;23;20208;-60
2022/10/26 11:23:21;;;;;;;12.40;2.37;;;;;;;20.28;63.74;99064.84;6166657;23;20271;-59
2022/10/26 11:25:51;;;;;;;8.07;2.57;;;;;;;20.25;64.56;99065.25;6170646;23;20204;-59
2022/10/26 11:28:25;;;;;;;9.63;2.47;;;;;;;20.20;61.35;99064.03;6165980;23;20571;-59
2022/10/26 11:31:00;;;;;;;8.83;1.83;;;;;;;20.42;62.85;99071.00;6170800;23;20235;-59
2022/10/26 11:33:32;;;;;;;9.47;2.10;;;;;;;20.32;63.03;99074.03;6166817;23;20216;-59
2022/10/26 11:36:03;;;;;;;10.57;2.53;;;;;;;20.42;60.66;99066.47;6170738;23;20212;-59
2022/10/26 11:38:36;;;;;;;6.83;1.97;;;;;;;20.73;60.23;99070.34;6167279;23;20232;-59
2022/10/26 11:41:11;;;;;;;10.27;2.17;;;;;;;20.48;60.52;99062.22;6169609;23;20204;-58